sensor_id;sensor_type;location;lat;lon;timestamp;P1;durP1;ratioP1;P2;durP2;ratioP2
25972;SDS011;13765;51.166;4.466;2023-04-03T00:00:22;10.43;;;5.03;;
25972;SDS011;13765;51.166;4.466;2023-04-03T00:02:47;16.27;;;5.35;;
25972;SDS011;13765;51.166;4.466;2023-04-03T00:05:15;13.07;;;4.50;;
25972;SDS011;13765;51.166;4.466;2023-04-03T00:07:44;8.85;;;4.15;;
25972;SDS011;13765;51.166;4.466;2023-04-03T00:10:09;11.55;;;4.90;;
25972;SDS011;13765;51.166;4.466;2023-04-03T00:12:38;11.00;;;4.35;;
25972;SDS011;13765;51.166;4.466;2023-04-03T00:15:04;11.88;;;4.97;;
25972;SDS011;13765;51.166;4.466;2023-04-03T00:17:30;13.30;;;5.03;;
25972;SDS011;13765;51.166;4.466;2023-04-03T00:19:58;13.77;;;5.22;;
25972;SDS011;13765;51.166;4.466;2023-04-03T00:22:29;14.77;;;5.25;;
25972;SDS011;13765;51.166;4.466;2023-04-03T00:24:59;10.13;;;4.25;;
25972;SDS011;13765;51.166;4.466;2023-04-03T00:27:25;12.93;;;5.32;;
25972;SDS011;13765;51.166;4.466;2023-04-03T00:29:51;13.80;;;5.72;;
25972;SDS011;13765;51.166;4.466;2023-04-03T00:32:16;11.18;;;5.13;;
25972;SDS011;13765;51.166;4.466;2023-04-03T00:34:42;9.68;;;3.85;;
25972;SDS011;13765;51.166;4.466;2023-04-03T00:37:08;13.80;;;4.85;;
25972;SDS011;13765;51.166;4.466;2023-04-03T00:39:36;10.52;;;4.05;;
25972;SDS011;13765;51.166;4.466;2023-04-03T00:42:01;16.40;;;4.40;;
25972;SDS011;13765;51.166;4.466;2023-04-03T00:46:52;10.95;;;5.00;;
25972;SDS011;13765;51.166;4.466;2023-04-03T00:49:20;12.30;;;4.32;;
25972;SDS011;13765;51.166;4.466;2023-04-03T00:51:46;6.82;;;3.75;;
25972;SDS011;13765;51.166;4.466;2023-04-03T00:54:12;9.25;;;4.25;;
25972;SDS011;13765;51.166;4.466;2023-04-03T00:56:43;14.63;;;5.13;;
25972;SDS011;13765;51.166;4.466;2023-04-03T00:59:10;9.00;;;3.78;;
25972;SDS011;13765;51.166;4.466;2023-04-03T01:01:40;13.70;;;4.43;;
25972;SDS011;13765;51.166;4.466;2023-04-03T01:06:54;10.25;;;4.50;;
25972;SDS011;13765;51.166;4.466;2023-04-03T01:09:22;8.88;;;4.47;;
25972;SDS011;13765;51.166;4.466;2023-04-03T01:11:48;12.43;;;4.43;;
25972;SDS011;13765;51.166;4.466;2023-04-03T01:14:13;4.70;;;3.22;;
25972;SDS011;13765;51.166;4.466;2023-04-03T01:16:39;9.43;;;3.95;;
25972;SDS011;13765;51.166;4.466;2023-04-03T01:19:08;9.77;;;3.92;;
25972;SDS011;13765;51.166;4.466;2023-04-03T01:29:23;9.45;;;4.60;;
25972;SDS011;13765;51.166;4.466;2023-04-03T01:31:52;9.95;;;4.18;;
25972;SDS011;13765;51.166;4.466;2023-04-03T01:34:22;10.43;;;4.47;;
25972;SDS011;13765;51.166;4.466;2023-04-03T01:36:49;12.60;;;5.05;;
25972;SDS011;13765;51.166;4.466;2023-04-03T01:39:15;14.57;;;4.85;;
25972;SDS011;13765;51.166;4.466;2023-04-03T01:41:42;12.68;;;5.20;;
25972;SDS011;13765;51.166;4.466;2023-04-03T01:44:07;11.15;;;4.53;;
25972;SDS011;13765;51.166;4.466;2023-04-03T01:46:35;9.02;;;4.90;;
25972;SDS011;13765;51.166;4.466;2023-04-03T01:49:03;8.18;;;4.38;;
25972;SDS011;13765;51.166;4.466;2023-04-03T01:51:32;10.57;;;5.28;;
25972;SDS011;13765;51.166;4.466;2023-04-03T01:53:58;13.60;;;4.53;;
25972;SDS011;13765;51.166;4.466;2023-04-03T01:56:23;12.43;;;4.90;;
25972;SDS011;13765;51.166;4.466;2023-04-03T01:58:52;9.07;;;4.85;;
25972;SDS011;13765;51.166;4.466;2023-04-03T02:01:18;10.77;;;5.47;;
25972;SDS011;13765;51.166;4.466;2023-04-03T02:03:43;12.80;;;5.15;;
25972;SDS011;13765;51.166;4.466;2023-04-03T02:06:09;10.43;;;4.18;;
25972;SDS011;13765;51.166;4.466;2023-04-03T02:08:37;14.93;;;6.03;;
25972;SDS011;13765;51.166;4.466;2023-04-03T02:11:03;9.88;;;4.80;;
25972;SDS011;13765;51.166;4.466;2023-04-03T02:13:31;11.18;;;3.85;;
25972;SDS011;13765;51.166;4.466;2023-04-03T02:15:56;17.73;;;6.03;;
25972;SDS011;13765;51.166;4.466;2023-04-03T02:18:22;12.70;;;4.43;;
25972;SDS011;13765;51.166;4.466;2023-04-03T02:20:48;12.88;;;4.63;;
25972;SDS011;13765;51.166;4.466;2023-04-03T02:23:13;13.13;;;5.40;;
25972;SDS011;13765;51.166;4.466;2023-04-03T02:25:39;11.40;;;5.18;;
25972;SDS011;13765;51.166;4.466;2023-04-03T02:28:05;13.52;;;5.82;;
25972;SDS011;13765;51.166;4.466;2023-04-03T02:30:31;14.73;;;4.97;;
25972;SDS011;13765;51.166;4.466;2023-04-03T02:32:56;11.90;;;5.05;;
25972;SDS011;13765;51.166;4.466;2023-04-03T02:35:22;13.13;;;4.75;;
25972;SDS011;13765;51.166;4.466;2023-04-03T02:37:48;16.83;;;5.80;;
25972;SDS011;13765;51.166;4.466;2023-04-03T02:40:13;10.35;;;4.82;;
25972;SDS011;13765;51.166;4.466;2023-04-03T02:42:39;12.63;;;5.00;;
25972;SDS011;13765;51.166;4.466;2023-04-03T02:45:07;11.27;;;4.78;;
25972;SDS011;13765;51.166;4.466;2023-04-03T02:47:33;10.90;;;4.72;;
25972;SDS011;13765;51.166;4.466;2023-04-03T02:50:01;14.02;;;4.63;;
25972;SDS011;13765;51.166;4.466;2023-04-03T02:52:26;10.70;;;4.43;;
25972;SDS011;13765;51.166;4.466;2023-04-03T02:54:56;12.68;;;5.45;;
25972;SDS011;13765;51.166;4.466;2023-04-03T02:57:24;13.05;;;5.50;;
25972;SDS011;13765;51.166;4.466;2023-04-03T02:59:50;14.57;;;5.75;;
25972;SDS011;13765;51.166;4.466;2023-04-03T03:02:20;10.35;;;5.28;;
25972;SDS011;13765;51.166;4.466;2023-04-03T03:04:48;7.53;;;3.55;;
25972;SDS011;13765;51.166;4.466;2023-04-03T03:07:14;9.43;;;4.65;;
25972;SDS011;13765;51.166;4.466;2023-04-03T03:09:39;11.07;;;4.72;;
25972;SDS011;13765;51.166;4.466;2023-04-03T03:12:07;11.30;;;4.30;;
25972;SDS011;13765;51.166;4.466;2023-04-03T03:14:33;10.90;;;4.88;;
25972;SDS011;13765;51.166;4.466;2023-04-03T03:16:58;16.42;;;5.82;;
25972;SDS011;13765;51.166;4.466;2023-04-03T03:19:26;14.18;;;4.88;;
25972;SDS011;13765;51.166;4.466;2023-04-03T03:21:52;10.88;;;4.18;;
25972;SDS011;13765;51.166;4.466;2023-04-03T03:24:21;11.02;;;4.57;;
25972;SDS011;13765;51.166;4.466;2023-04-03T03:26:47;12.10;;;5.88;;
25972;SDS011;13765;51.166;4.466;2023-04-03T03:29:13;10.95;;;3.97;;
25972;SDS011;13765;51.166;4.466;2023-04-03T03:31:40;9.30;;;4.47;;
25972;SDS011;13765;51.166;4.466;2023-04-03T03:34:06;9.82;;;4.75;;
25972;SDS011;13765;51.166;4.466;2023-04-03T03:36:34;10.90;;;4.40;;
25972;SDS011;13765;51.166;4.466;2023-04-03T03:39:00;10.85;;;4.63;;
25972;SDS011;13765;51.166;4.466;2023-04-03T03:41:28;14.73;;;5.13;;
25972;SDS011;13765;51.166;4.466;2023-04-03T03:43:56;9.68;;;4.32;;
25972;SDS011;13765;51.166;4.466;2023-04-03T03:46:24;12.07;;;4.53;;
25972;SDS011;13765;51.166;4.466;2023-04-03T03:48:50;9.20;;;4.82;;
25972;SDS011;13765;51.166;4.466;2023-04-03T03:51:15;15.70;;;5.40;;
25972;SDS011;13765;51.166;4.466;2023-04-03T03:53:41;12.60;;;5.10;;
25972;SDS011;13765;51.166;4.466;2023-04-03T03:56:07;12.68;;;5.78;;
25972;SDS011;13765;51.166;4.466;2023-04-03T03:58:35;12.43;;;5.40;;
25972;SDS011;13765;51.166;4.466;2023-04-03T04:01:04;10.88;;;4.63;;
25972;SDS011;13765;51.166;4.466;2023-04-03T04:03:31;16.25;;;5.10;;
25972;SDS011;13765;51.166;4.466;2023-04-03T04:05:57;9.32;;;4.38;;
25972;SDS011;13765;51.166;4.466;2023-04-03T04:08:23;13.32;;;5.40;;
25972;SDS011;13765;51.166;4.466;2023-04-03T04:10:49;9.68;;;4.45;;
25972;SDS011;13765;51.166;4.466;2023-04-03T04:13:15;14.75;;;6.30;;
25972;SDS011;13765;51.166;4.466;2023-04-03T04:15:41;10.57;;;4.20;;
25972;SDS011;13765;51.166;4.466;2023-04-03T04:18:07;18.25;;;6.18;;
25972;SDS011;13765;51.166;4.466;2023-04-03T04:20:33;8.77;;;4.35;;
25972;SDS011;13765;51.166;4.466;2023-04-03T04:23:01;9.38;;;4.63;;
25972;SDS011;13765;51.166;4.466;2023-04-03T04:25:29;9.93;;;4.45;;
25972;SDS011;13765;51.166;4.466;2023-04-03T04:27:55;8.40;;;4.72;;
25972;SDS011;13765;51.166;4.466;2023-04-03T04:30:20;11.30;;;4.80;;
25972;SDS011;13765;51.166;4.466;2023-04-03T04:32:48;11.00;;;5.18;;
25972;SDS011;13765;51.166;4.466;2023-04-03T04:35:16;17.02;;;5.25;;
25972;SDS011;13765;51.166;4.466;2023-04-03T04:37:41;12.30;;;5.40;;
25972;SDS011;13765;51.166;4.466;2023-04-03T04:40:10;10.93;;;5.00;;
25972;SDS011;13765;51.166;4.466;2023-04-03T04:42:38;12.52;;;4.32;;
25972;SDS011;13765;51.166;4.466;2023-04-03T04:45:06;13.93;;;5.47;;
25972;SDS011;13765;51.166;4.466;2023-04-03T04:47:34;7.45;;;4.47;;
25972;SDS011;13765;51.166;4.466;2023-04-03T04:50:00;9.60;;;5.15;;
25972;SDS011;13765;51.166;4.466;2023-04-03T04:52:26;12.07;;;4.20;;
25972;SDS011;13765;51.166;4.466;2023-04-03T04:54:51;10.05;;;4.35;;
25972;SDS011;13765;51.166;4.466;2023-04-03T04:57:17;13.82;;;4.68;;
25972;SDS011;13765;51.166;4.466;2023-04-03T04:59:43;20.45;;;5.72;;
25972;SDS011;13765;51.166;4.466;2023-04-03T05:02:11;9.77;;;5.07;;
25972;SDS011;13765;51.166;4.466;2023-04-03T05:04:39;15.23;;;4.53;;
25972;SDS011;13765;51.166;4.466;2023-04-03T05:07:05;13.25;;;5.32;;
25972;SDS011;13765;51.166;4.466;2023-04-03T05:09:30;17.35;;;6.03;;
25972;SDS011;13765;51.166;4.466;2023-04-03T05:11:59;10.88;;;5.25;;
25972;SDS011;13765;51.166;4.466;2023-04-03T05:14:28;15.18;;;5.55;;
25972;SDS011;13765;51.166;4.466;2023-04-03T05:16:56;11.77;;;5.00;;
25972;SDS011;13765;51.166;4.466;2023-04-03T05:19:22;17.10;;;4.93;;
25972;SDS011;13765;51.166;4.466;2023-04-03T05:21:48;16.33;;;5.70;;
25972;SDS011;13765;51.166;4.466;2023-04-03T05:24:16;13.55;;;4.88;;
25972;SDS011;13765;51.166;4.466;2023-04-03T05:26:44;15.77;;;5.60;;
25972;SDS011;13765;51.166;4.466;2023-04-03T05:29:10;18.25;;;5.53;;
25972;SDS011;13765;51.166;4.466;2023-04-03T05:31:36;10.10;;;5.00;;
25972;SDS011;13765;51.166;4.466;2023-04-03T05:34:01;15.43;;;6.00;;
25972;SDS011;13765;51.166;4.466;2023-04-03T05:36:27;12.55;;;5.00;;
25972;SDS011;13765;51.166;4.466;2023-04-03T05:38:53;13.45;;;6.00;;
25972;SDS011;13765;51.166;4.466;2023-04-03T05:41:21;9.13;;;4.75;;
25972;SDS011;13765;51.166;4.466;2023-04-03T05:43:47;20.67;;;7.97;;
25972;SDS011;13765;51.166;4.466;2023-04-03T05:46:16;14.45;;;6.70;;
25972;SDS011;13765;51.166;4.466;2023-04-03T05:48:46;14.10;;;5.47;;
25972;SDS011;13765;51.166;4.466;2023-04-03T05:51:18;14.77;;;6.65;;
25972;SDS011;13765;51.166;4.466;2023-04-03T05:53:47;14.95;;;6.28;;
25972;SDS011;13765;51.166;4.466;2023-04-03T05:56:19;13.05;;;5.07;;
25972;SDS011;13765;51.166;4.466;2023-04-03T05:58:47;14.20;;;6.10;;
25972;SDS011;13765;51.166;4.466;2023-04-03T06:01:15;16.00;;;6.30;;
25972;SDS011;13765;51.166;4.466;2023-04-03T06:03:43;11.68;;;5.50;;
25972;SDS011;13765;51.166;4.466;2023-04-03T06:06:12;10.30;;;5.25;;
25972;SDS011;13765;51.166;4.466;2023-04-03T06:08:41;21.83;;;6.22;;
25972;SDS011;13765;51.166;4.466;2023-04-03T06:11:06;22.70;;;6.70;;
25972;SDS011;13765;51.166;4.466;2023-04-03T06:13:33;16.52;;;6.10;;
25972;SDS011;13765;51.166;4.466;2023-04-03T06:16:00;19.58;;;5.72;;
25972;SDS011;13765;51.166;4.466;2023-04-03T06:18:30;12.25;;;6.25;;
25972;SDS011;13765;51.166;4.466;2023-04-03T06:20:58;13.23;;;6.25;;
25972;SDS011;13765;51.166;4.466;2023-04-03T06:23:25;14.60;;;5.72;;
25972;SDS011;13765;51.166;4.466;2023-04-03T06:25:51;31.02;;;6.03;;
25972;SDS011;13765;51.166;4.466;2023-04-03T06:28:17;16.05;;;7.35;;
25972;SDS011;13765;51.166;4.466;2023-04-03T06:30:45;20.27;;;6.47;;
25972;SDS011;13765;51.166;4.466;2023-04-03T06:33:10;13.65;;;5.93;;
25972;SDS011;13765;51.166;4.466;2023-04-03T06:35:36;13.68;;;5.43;;
25972;SDS011;13765;51.166;4.466;2023-04-03T06:38:04;9.98;;;4.25;;
25972;SDS011;13765;51.166;4.466;2023-04-03T06:40:34;12.43;;;4.65;;
25972;SDS011;13765;51.166;4.466;2023-04-03T06:43:00;11.07;;;4.25;;
25972;SDS011;13765;51.166;4.466;2023-04-03T06:45:26;9.05;;;3.45;;
25972;SDS011;13765;51.166;4.466;2023-04-03T06:47:52;9.25;;;3.88;;
25972;SDS011;13765;51.166;4.466;2023-04-03T06:50:23;14.00;;;3.38;;
25972;SDS011;13765;51.166;4.466;2023-04-03T06:52:49;8.02;;;3.60;;
25972;SDS011;13765;51.166;4.466;2023-04-03T06:55:15;11.88;;;3.78;;
25972;SDS011;13765;51.166;4.466;2023-04-03T06:57:41;5.95;;;2.80;;
25972;SDS011;13765;51.166;4.466;2023-04-03T07:00:09;7.97;;;3.58;;
25972;SDS011;13765;51.166;4.466;2023-04-03T07:02:39;9.57;;;3.42;;
25972;SDS011;13765;51.166;4.466;2023-04-03T07:05:05;10.60;;;3.83;;
25972;SDS011;13765;51.166;4.466;2023-04-03T07:07:34;8.90;;;3.40;;
25972;SDS011;13765;51.166;4.466;2023-04-03T07:10:00;9.45;;;2.85;;
25972;SDS011;13765;51.166;4.466;2023-04-03T07:12:28;8.40;;;3.28;;
25972;SDS011;13765;51.166;4.466;2023-04-03T07:14:53;8.85;;;3.67;;
25972;SDS011;13765;51.166;4.466;2023-04-03T07:17:19;8.95;;;3.05;;
25972;SDS011;13765;51.166;4.466;2023-04-03T07:19:45;13.10;;;3.10;;
25972;SDS011;13765;51.166;4.466;2023-04-03T07:22:13;5.57;;;3.15;;
25972;SDS011;13765;51.166;4.466;2023-04-03T07:24:39;10.05;;;3.85;;
25972;SDS011;13765;51.166;4.466;2023-04-03T07:27:05;10.85;;;3.08;;
25972;SDS011;13765;51.166;4.466;2023-04-03T07:29:31;10.80;;;3.00;;
25972;SDS011;13765;51.166;4.466;2023-04-03T07:31:58;7.95;;;3.35;;
25972;SDS011;13765;51.166;4.466;2023-04-03T07:34:24;7.18;;;2.70;;
25972;SDS011;13765;51.166;4.466;2023-04-03T07:36:57;11.82;;;3.65;;
25972;SDS011;13765;51.166;4.466;2023-04-03T07:39:25;11.85;;;3.33;;
25972;SDS011;13765;51.166;4.466;2023-04-03T07:41:53;12.90;;;3.65;;
25972;SDS011;13765;51.166;4.466;2023-04-03T07:44:21;6.90;;;2.85;;
25972;SDS011;13765;51.166;4.466;2023-04-03T07:46:49;9.50;;;3.92;;
25972;SDS011;13765;51.166;4.466;2023-04-03T07:49:17;7.10;;;2.90;;
25972;SDS011;13765;51.166;4.466;2023-04-03T07:51:43;8.82;;;2.88;;
25972;SDS011;13765;51.166;4.466;2023-04-03T07:54:09;8.15;;;3.40;;
25972;SDS011;13765;51.166;4.466;2023-04-03T07:56:38;10.45;;;2.67;;
25972;SDS011;13765;51.166;4.466;2023-04-03T07:59:03;5.88;;;2.65;;
25972;SDS011;13765;51.166;4.466;2023-04-03T08:01:31;7.47;;;2.50;;
25972;SDS011;13765;51.166;4.466;2023-04-03T08:03:59;7.97;;;2.67;;
25972;SDS011;13765;51.166;4.466;2023-04-03T08:06:25;8.73;;;2.92;;
25972;SDS011;13765;51.166;4.466;2023-04-03T08:08:51;7.78;;;2.83;;
25972;SDS011;13765;51.166;4.466;2023-04-03T08:11:17;5.55;;;2.60;;
25972;SDS011;13765;51.166;4.466;2023-04-03T08:13:43;7.90;;;2.80;;
25972;SDS011;13765;51.166;4.466;2023-04-03T08:16:14;11.95;;;2.47;;
25972;SDS011;13765;51.166;4.466;2023-04-03T08:18:47;8.60;;;2.85;;
25972;SDS011;13765;51.166;4.466;2023-04-03T08:21:13;6.30;;;2.97;;
25972;SDS011;13765;51.166;4.466;2023-04-03T08:23:41;5.15;;;2.40;;
25972;SDS011;13765;51.166;4.466;2023-04-03T08:26:07;7.35;;;2.83;;
25972;SDS011;13765;51.166;4.466;2023-04-03T08:28:35;5.35;;;2.47;;
25972;SDS011;13765;51.166;4.466;2023-04-03T08:31:04;9.38;;;2.60;;
25972;SDS011;13765;51.166;4.466;2023-04-03T08:33:32;3.10;;;2.00;;
25972;SDS011;13765;51.166;4.466;2023-04-03T08:35:58;11.40;;;2.78;;
25972;SDS011;13765;51.166;4.466;2023-04-03T08:38:24;4.97;;;2.53;;
25972;SDS011;13765;51.166;4.466;2023-04-03T08:46:47;8.45;;;3.72;;
25972;SDS011;13765;51.166;4.466;2023-04-03T08:49:28;5.13;;;2.60;;
25972;SDS011;13765;51.166;4.466;2023-04-03T08:52:04;8.15;;;2.47;;
25972;SDS011;13765;51.166;4.466;2023-04-03T08:54:35;7.45;;;2.15;;
25972;SDS011;13765;51.166;4.466;2023-04-03T08:57:09;3.22;;;1.65;;
25972;SDS011;13765;51.166;4.466;2023-04-03T08:59:37;4.50;;;1.63;;
25972;SDS011;13765;51.166;4.466;2023-04-03T09:02:18;5.00;;;1.52;;
25972;SDS011;13765;51.166;4.466;2023-04-03T09:04:58;6.85;;;1.77;;
25972;SDS011;13765;51.166;4.466;2023-04-03T09:07:33;8.05;;;1.50;;
25972;SDS011;13765;51.166;4.466;2023-04-03T09:10:04;6.65;;;1.63;;
25972;SDS011;13765;51.166;4.466;2023-04-03T09:12:37;6.68;;;1.98;;
25972;SDS011;13765;51.166;4.466;2023-04-03T09:15:10;2.35;;;1.70;;
25972;SDS011;13765;51.166;4.466;2023-04-03T09:20:16;8.63;;;2.00;;
25972;SDS011;13765;51.166;4.466;2023-04-03T09:22:54;4.63;;;1.73;;
25972;SDS011;13765;51.166;4.466;2023-04-03T09:25:32;3.42;;;1.48;;
25972;SDS011;13765;51.166;4.466;2023-04-03T09:28:02;3.42;;;1.27;;
25972;SDS011;13765;51.166;4.466;2023-04-03T09:30:31;6.72;;;1.80;;
25972;SDS011;13765;51.166;4.466;2023-04-03T09:32:58;2.80;;;1.58;;
25972;SDS011;13765;51.166;4.466;2023-04-03T09:40:37;3.15;;;1.25;;
25972;SDS011;13765;51.166;4.466;2023-04-03T09:45:45;4.05;;;1.73;;
25972;SDS011;13765;51.166;4.466;2023-04-03T09:55:55;7.22;;;2.10;;
25972;SDS011;13765;51.166;4.466;2023-04-03T09:58:28;3.03;;;1.60;;
25972;SDS011;13765;51.166;4.466;2023-04-03T10:01:09;2.25;;;1.30;;
25972;SDS011;13765;51.166;4.466;2023-04-03T10:04:13;4.47;;;1.23;;
25972;SDS011;13765;51.166;4.466;2023-04-03T10:09:28;2.10;;;1.55;;
25972;SDS011;13765;51.166;4.466;2023-04-03T10:15:17;6.55;;;1.30;;
25972;SDS011;13765;51.166;4.466;2023-04-03T10:19:56;6.63;;;1.60;;
25972;SDS011;13765;51.166;4.466;2023-04-03T10:28:10;5.63;;;1.50;;
25972;SDS011;13765;51.166;4.466;2023-04-03T10:31:16;3.08;;;1.25;;
25972;SDS011;13765;51.166;4.466;2023-04-03T10:39:41;3.80;;;1.17;;
25972;SDS011;13765;51.166;4.466;2023-04-03T10:42:25;9.10;;;2.35;;
25972;SDS011;13765;51.166;4.466;2023-04-03T10:53:23;8.63;;;1.17;;
25972;SDS011;13765;51.166;4.466;2023-04-03T10:56:03;3.45;;;1.92;;
25972;SDS011;13765;51.166;4.466;2023-04-03T10:58:56;1.95;;;1.10;;
25972;SDS011;13765;51.166;4.466;2023-04-03T11:01:38;1.52;;;0.82;;
25972;SDS011;13765;51.166;4.466;2023-04-03T11:04:11;7.45;;;1.42;;
25972;SDS011;13765;51.166;4.466;2023-04-03T11:06:52;2.97;;;1.92;;
25972;SDS011;13765;51.166;4.466;2023-04-03T11:09:35;2.25;;;1.23;;
25972;SDS011;13765;51.166;4.466;2023-04-03T11:12:11;5.13;;;1.30;;
25972;SDS011;13765;51.166;4.466;2023-04-03T11:14:42;5.47;;;1.17;;
25972;SDS011;13765;51.166;4.466;2023-04-03T11:19:45;5.80;;;0.95;;
25972;SDS011;13765;51.166;4.466;2023-04-03T11:22:36;0.88;;;0.65;;
25972;SDS011;13765;51.166;4.466;2023-04-03T11:27:48;1.25;;;0.85;;
25972;SDS011;13765;51.166;4.466;2023-04-03T11:36:07;3.28;;;1.15;;
25972;SDS011;13765;51.166;4.466;2023-04-03T11:38:44;1.92;;;0.68;;
25972;SDS011;13765;51.166;4.466;2023-04-03T11:41:14;1.98;;;1.00;;
25972;SDS011;13765;51.166;4.466;2023-04-03T11:43:55;1.50;;;0.85;;
25972;SDS011;13765;51.166;4.466;2023-04-03T12:05:48;1.38;;;0.85;;
25972;SDS011;13765;51.166;4.466;2023-04-03T12:26:50;2.65;;;1.05;;
25972;SDS011;13765;51.166;4.466;2023-04-03T12:37:34;1.38;;;0.80;;
25972;SDS011;13765;51.166;4.466;2023-04-03T12:45:40;1.33;;;0.88;;
25972;SDS011;13765;51.166;4.466;2023-04-03T12:48:14;1.60;;;0.70;;
25972;SDS011;13765;51.166;4.466;2023-04-03T12:50:41;4.03;;;0.88;;
25972;SDS011;13765;51.166;4.466;2023-04-03T12:55:37;3.70;;;1.15;;
25972;SDS011;13765;51.166;4.466;2023-04-03T12:58:16;4.35;;;0.95;;
25972;SDS011;13765;51.166;4.466;2023-04-03T13:00:46;1.75;;;1.00;;
25972;SDS011;13765;51.166;4.466;2023-04-03T13:03:25;1.45;;;0.68;;
25972;SDS011;13765;51.166;4.466;2023-04-03T13:05:53;3.45;;;0.82;;
25972;SDS011;13765;51.166;4.466;2023-04-03T13:08:21;1.25;;;0.80;;
25972;SDS011;13765;51.166;4.466;2023-04-03T13:10:51;2.22;;;0.88;;
25972;SDS011;13765;51.166;4.466;2023-04-03T13:13:21;2.97;;;1.15;;
25972;SDS011;13765;51.166;4.466;2023-04-03T13:15:48;6.30;;;1.27;;
25972;SDS011;13765;51.166;4.466;2023-04-03T13:18:48;2.45;;;1.00;;
25972;SDS011;13765;51.166;4.466;2023-04-03T13:21:20;5.88;;;1.42;;
25972;SDS011;13765;51.166;4.466;2023-04-03T13:23:51;1.17;;;0.60;;
25972;SDS011;13765;51.166;4.466;2023-04-03T13:26:25;3.50;;;1.13;;
25972;SDS011;13765;51.166;4.466;2023-04-03T13:28:54;2.72;;;1.10;;
25972;SDS011;13765;51.166;4.466;2023-04-03T13:31:33;3.70;;;1.40;;
25972;SDS011;13765;51.166;4.466;2023-04-03T13:34:07;3.42;;;1.02;;
25972;SDS011;13765;51.166;4.466;2023-04-03T13:36:46;1.02;;;0.85;;
25972;SDS011;13765;51.166;4.466;2023-04-03T13:39:23;2.20;;;0.70;;
25972;SDS011;13765;51.166;4.466;2023-04-03T13:41:50;1.65;;;1.00;;
25972;SDS011;13765;51.166;4.466;2023-04-03T13:46:46;4.82;;;1.30;;
25972;SDS011;13765;51.166;4.466;2023-04-03T13:51:52;2.58;;;1.02;;
25972;SDS011;13765;51.166;4.466;2023-04-03T13:54:19;2.90;;;0.88;;
25972;SDS011;13765;51.166;4.466;2023-04-03T13:57:13;3.85;;;1.55;;
25972;SDS011;13765;51.166;4.466;2023-04-03T13:59:39;0.88;;;0.68;;
25972;SDS011;13765;51.166;4.466;2023-04-03T14:07:05;3.35;;;0.93;;
25972;SDS011;13765;51.166;4.466;2023-04-03T14:09:35;2.50;;;0.70;;
25972;SDS011;13765;51.166;4.466;2023-04-03T14:12:25;1.55;;;0.80;;
25972;SDS011;13765;51.166;4.466;2023-04-03T14:15:03;5.15;;;0.68;;
25972;SDS011;13765;51.166;4.466;2023-04-03T14:17:32;6.70;;;1.40;;
25972;SDS011;13765;51.166;4.466;2023-04-03T14:19:58;3.10;;;1.25;;
25972;SDS011;13765;51.166;4.466;2023-04-03T14:22:27;5.95;;;0.95;;
25972;SDS011;13765;51.166;4.466;2023-04-03T14:24:54;3.15;;;0.90;;
25972;SDS011;13765;51.166;4.466;2023-04-03T14:27:28;1.38;;;0.73;;
25972;SDS011;13765;51.166;4.466;2023-04-03T14:30:06;1.48;;;0.90;;
25972;SDS011;13765;51.166;4.466;2023-04-03T14:32:37;3.20;;;1.85;;
25972;SDS011;13765;51.166;4.466;2023-04-03T14:35:03;2.85;;;0.98;;
25972;SDS011;13765;51.166;4.466;2023-04-03T14:37:34;2.90;;;0.93;;
25972;SDS011;13765;51.166;4.466;2023-04-03T14:40:03;3.10;;;1.17;;
25972;SDS011;13765;51.166;4.466;2023-04-03T14:42:31;5.00;;;1.77;;
25972;SDS011;13765;51.166;4.466;2023-04-03T14:45:00;0.85;;;0.85;;
25972;SDS011;13765;51.166;4.466;2023-04-03T14:47:28;2.80;;;1.15;;
25972;SDS011;13765;51.166;4.466;2023-04-03T14:49:57;2.25;;;1.10;;
25972;SDS011;13765;51.166;4.466;2023-04-03T14:52:30;1.60;;;0.88;;
25972;SDS011;13765;51.166;4.466;2023-04-03T14:55:00;3.50;;;0.93;;
25972;SDS011;13765;51.166;4.466;2023-04-03T14:57:29;2.95;;;0.82;;
25972;SDS011;13765;51.166;4.466;2023-04-03T14:59:58;3.13;;;1.67;;
25972;SDS011;13765;51.166;4.466;2023-04-03T15:04:49;3.65;;;1.00;;
25972;SDS011;13765;51.166;4.466;2023-04-03T15:07:15;7.57;;;0.98;;
25972;SDS011;13765;51.166;4.466;2023-04-03T15:09:43;5.75;;;1.52;;
25972;SDS011;13765;51.166;4.466;2023-04-03T15:12:11;3.85;;;0.82;;
25972;SDS011;13765;51.166;4.466;2023-04-03T15:14:37;3.42;;;0.93;;
25972;SDS011;13765;51.166;4.466;2023-04-03T15:17:04;6.75;;;1.15;;
25972;SDS011;13765;51.166;4.466;2023-04-03T15:19:38;4.72;;;0.98;;
25972;SDS011;13765;51.166;4.466;2023-04-03T15:22:04;4.57;;;1.08;;
25972;SDS011;13765;51.166;4.466;2023-04-03T15:24:35;13.63;;;1.98;;
25972;SDS011;13765;51.166;4.466;2023-04-03T15:27:00;4.97;;;1.15;;
25972;SDS011;13765;51.166;4.466;2023-04-03T15:29:26;5.47;;;2.03;;
25972;SDS011;13765;51.166;4.466;2023-04-03T15:31:52;2.65;;;1.25;;
25972;SDS011;13765;51.166;4.466;2023-04-03T15:34:20;1.80;;;0.98;;
25972;SDS011;13765;51.166;4.466;2023-04-03T15:36:46;4.63;;;0.88;;
25972;SDS011;13765;51.166;4.466;2023-04-03T15:39:12;6.55;;;1.15;;
25972;SDS011;13765;51.166;4.466;2023-04-03T15:41:37;2.63;;;1.00;;
25972;SDS011;13765;51.166;4.466;2023-04-03T15:44:05;7.15;;;2.85;;
25972;SDS011;13765;51.166;4.466;2023-04-03T15:46:32;4.28;;;1.48;;
25972;SDS011;13765;51.166;4.466;2023-04-03T15:48:57;3.95;;;1.58;;
25972;SDS011;13765;51.166;4.466;2023-04-03T15:51:23;2.63;;;1.30;;
25972;SDS011;13765;51.166;4.466;2023-04-03T15:53:49;6.32;;;1.52;;
25972;SDS011;13765;51.166;4.466;2023-04-03T15:56:17;5.43;;;1.63;;
25972;SDS011;13765;51.166;4.466;2023-04-03T15:58:42;6.82;;;2.28;;
25972;SDS011;13765;51.166;4.466;2023-04-03T16:01:09;4.85;;;1.35;;
25972;SDS011;13765;51.166;4.466;2023-04-03T16:03:36;1.67;;;0.80;;
25972;SDS011;13765;51.166;4.466;2023-04-03T16:06:12;2.42;;;0.93;;
25972;SDS011;13765;51.166;4.466;2023-04-03T16:08:38;3.25;;;1.23;;
25972;SDS011;13765;51.166;4.466;2023-04-03T16:11:06;13.43;;;2.28;;
25972;SDS011;13765;51.166;4.466;2023-04-03T16:13:35;3.95;;;1.48;;
25972;SDS011;13765;51.166;4.466;2023-04-03T16:16:04;14.60;;;1.70;;
25972;SDS011;13765;51.166;4.466;2023-04-03T16:18:30;3.10;;;1.10;;
25972;SDS011;13765;51.166;4.466;2023-04-03T16:20:56;4.43;;;1.55;;
25972;SDS011;13765;51.166;4.466;2023-04-03T16:23:22;6.10;;;1.38;;
25972;SDS011;13765;51.166;4.466;2023-04-03T16:25:48;4.25;;;1.15;;
25972;SDS011;13765;51.166;4.466;2023-04-03T16:28:17;3.65;;;1.67;;
25972;SDS011;13765;51.166;4.466;2023-04-03T16:30:43;2.97;;;1.15;;
25972;SDS011;13765;51.166;4.466;2023-04-03T16:33:13;4.90;;;1.63;;
25972;SDS011;13765;51.166;4.466;2023-04-03T16:35:46;0.75;;;0.75;;
25972;SDS011;13765;51.166;4.466;2023-04-03T16:38:13;2.95;;;0.77;;
25972;SDS011;13765;51.166;4.466;2023-04-03T16:40:47;5.45;;;1.48;;
25972;SDS011;13765;51.166;4.466;2023-04-03T16:43:13;16.10;;;2.25;;
25972;SDS011;13765;51.166;4.466;2023-04-03T16:45:44;5.03;;;1.83;;
25972;SDS011;13765;51.166;4.466;2023-04-03T16:48:10;10.98;;;1.50;;
25972;SDS011;13765;51.166;4.466;2023-04-03T16:50:36;6.60;;;1.73;;
25972;SDS011;13765;51.166;4.466;2023-04-03T16:53:01;3.70;;;1.40;;
25972;SDS011;13765;51.166;4.466;2023-04-03T16:55:28;8.10;;;2.17;;
25972;SDS011;13765;51.166;4.466;2023-04-03T16:57:53;4.65;;;1.58;;
25972;SDS011;13765;51.166;4.466;2023-04-03T17:00:20;4.50;;;1.38;;
25972;SDS011;13765;51.166;4.466;2023-04-03T17:02:48;2.20;;;1.13;;
25972;SDS011;13765;51.166;4.466;2023-04-03T17:05:14;2.88;;;1.33;;
25972;SDS011;13765;51.166;4.466;2023-04-03T17:07:42;3.45;;;1.50;;
25972;SDS011;13765;51.166;4.466;2023-04-03T17:10:08;2.38;;;1.20;;
25972;SDS011;13765;51.166;4.466;2023-04-03T17:12:34;2.28;;;1.27;;
25972;SDS011;13765;51.166;4.466;2023-04-03T17:15:02;4.85;;;1.58;;